sensor_id;sensor_type;location;lat;lon;timestamp;temperature;humidity
44767;DHT22;30487;48.716;9.272;2023-08-07T00:02:02;12.20;99.90
44767;DHT22;30487;48.716;9.272;2023-08-07T00:04:29;12.20;99.90
44767;DHT22;30487;48.716;9.272;2023-08-07T00:06:54;12.20;99.90
44767;DHT22;30487;48.716;9.272;2023-08-07T00:09:20;12.30;99.90
44767;DHT22;30487;48.716;9.272;2023-08-07T00:11:45;12.20;99.90
44767;DHT22;30487;48.716;9.272;2023-08-07T00:14:11;12.30;99.90
44767;DHT22;30487;48.716;9.272;2023-08-07T00:16:37;12.30;99.90
44767;DHT22;30487;48.716;9.272;2023-08-07T00:19:02;12.30;99.90
44767;DHT22;30487;48.716;9.272;2023-08-07T00:21:28;12.20;99.90
44767;DHT22;30487;48.716;9.272;2023-08-07T00:23:54;12.20;99.90
44767;DHT22;30487;48.716;9.272;2023-08-07T00:26:20;12.10;99.90
44767;DHT22;30487;48.716;9.272;2023-08-07T00:28:46;12.20;99.90
44767;DHT22;30487;48.716;9.272;2023-08-07T00:31:12;12.10;99.90
44767;DHT22;30487;48.716;9.272;2023-08-07T00:33:37;12.20;99.90
44767;DHT22;30487;48.716;9.272;2023-08-07T00:36:03;12.20;99.90
44767;DHT22;30487;48.716;9.272;2023-08-07T00:38:29;12.20;99.90
44767;DHT22;30487;48.716;9.272;2023-08-07T00:40:55;12.20;99.90
44767;DHT22;30487;48.716;9.272;2023-08-07T00:43:20;12.20;99.90
44767;DHT22;30487;48.716;9.272;2023-08-07T00:45:47;12.30;99.90
44767;DHT22;30487;48.716;9.272;2023-08-07T00:48:14;12.20;99.90
44767;DHT22;30487;48.716;9.272;2023-08-07T00:50:41;12.20;99.90
44767;DHT22;30487;48.716;9.272;2023-08-07T00:53:07;12.20;99.90
44767;DHT22;30487;48.716;9.272;2023-08-07T00:55:34;12.20;99.90
44767;DHT22;30487;48.716;9.272;2023-08-07T00:58:00;12.30;99.90
44767;DHT22;30487;48.716;9.272;2023-08-07T01:00:28;12.20;99.90
44767;DHT22;30487;48.716;9.272;2023-08-07T01:02:56;12.20;99.90
44767;DHT22;30487;48.716;9.272;2023-08-07T01:05:25;12.20;99.90
44767;DHT22;30487;48.716;9.272;2023-08-07T01:07:54;12.20;99.90
44767;DHT22;30487;48.716;9.272;2023-08-07T01:10:33;12.10;99.90
44767;DHT22;30487;48.716;9.272;2023-08-07T01:13:08;12.10;99.90
44767;DHT22;30487;48.716;9.272;2023-08-07T01:15:37;12.10;99.90
44767;DHT22;30487;48.716;9.272;2023-08-07T01:18:04;12.10;99.90
44767;DHT22;30487;48.716;9.272;2023-08-07T01:20:31;12.10;99.90
44767;DHT22;30487;48.716;9.272;2023-08-07T01:22:57;12.10;99.90
44767;DHT22;30487;48.716;9.272;2023-08-07T01:25:22;12.10;99.90
44767;DHT22;30487;48.716;9.272;2023-08-07T01:27:55;12.10;99.90
44767;DHT22;30487;48.716;9.272;2023-08-07T01:33:22;12.10;99.90
44767;DHT22;30487;48.716;9.272;2023-08-07T01:35:57;12.10;99.90
44767;DHT22;30487;48.716;9.272;2023-08-07T01:38:25;12.20;99.90
44767;DHT22;30487;48.716;9.272;2023-08-07T01:40:52;12.10;99.90
44767;DHT22;30487;48.716;9.272;2023-08-07T01:43:18;12.20;99.90
44767;DHT22;30487;48.716;9.272;2023-08-07T01:45:46;12.10;99.90
44767;DHT22;30487;48.716;9.272;2023-08-07T01:48:12;12.10;99.90
44767;DHT22;30487;48.716;9.272;2023-08-07T01:50:38;12.20;99.90
44767;DHT22;30487;48.716;9.272;2023-08-07T01:53:04;12.20;99.90
44767;DHT22;30487;48.716;9.272;2023-08-07T01:55:30;12.20;99.90
44767;DHT22;30487;48.716;9.272;2023-08-07T01:57:56;12.20;99.90
44767;DHT22;30487;48.716;9.272;2023-08-07T02:00:22;12.10;99.90
44767;DHT22;30487;48.716;9.272;2023-08-07T02:02:47;12.10;99.90
44767;DHT22;30487;48.716;9.272;2023-08-07T02:05:13;12.10;99.90
44767;DHT22;30487;48.716;9.272;2023-08-07T02:07:40;12.10;99.90
44767;DHT22;30487;48.716;9.272;2023-08-07T02:10:06;12.10;99.90
44767;DHT22;30487;48.716;9.272;2023-08-07T02:12:31;12.10;99.90
44767;DHT22;30487;48.716;9.272;2023-08-07T02:15:00;12.00;99.90
44767;DHT22;30487;48.716;9.272;2023-08-07T02:17:27;12.00;99.90
44767;DHT22;30487;48.716;9.272;2023-08-07T02:19:53;12.00;99.90
44767;DHT22;30487;48.716;9.272;2023-08-07T02:22:19;12.10;99.90
44767;DHT22;30487;48.716;9.272;2023-08-07T02:24:44;12.10;99.90
44767;DHT22;30487;48.716;9.272;2023-08-07T02:27:10;12.10;99.90
44767;DHT22;30487;48.716;9.272;2023-08-07T02:29:36;12.10;99.90
44767;DHT22;30487;48.716;9.272;2023-08-07T02:32:02;12.10;99.90
44767;DHT22;30487;48.716;9.272;2023-08-07T02:34:29;12.10;99.90
44767;DHT22;30487;48.716;9.272;2023-08-07T02:36:54;12.10;99.90
44767;DHT22;30487;48.716;9.272;2023-08-07T02:39:20;12.00;99.90
44767;DHT22;30487;48.716;9.272;2023-08-07T02:41:45;12.00;99.90
44767;DHT22;30487;48.716;9.272;2023-08-07T02:44:11;12.00;99.90
44767;DHT22;30487;48.716;9.272;2023-08-07T02:46:37;12.10;99.90
44767;DHT22;30487;48.716;9.272;2023-08-07T02:49:02;12.00;99.90
44767;DHT22;30487;48.716;9.272;2023-08-07T02:51:28;12.10;99.90
44767;DHT22;30487;48.716;9.272;2023-08-07T02:53:53;12.20;99.90
44767;DHT22;30487;48.716;9.272;2023-08-07T02:56:19;12.20;99.90
44767;DHT22;30487;48.716;9.272;2023-08-07T02:58:44;12.20;99.90
44767;DHT22;30487;48.716;9.272;2023-08-07T03:01:10;12.10;99.90
44767;DHT22;30487;48.716;9.272;2023-08-07T03:03:36;12.20;99.90
44767;DHT22;30487;48.716;9.272;2023-08-07T03:06:03;12.10;99.90
44767;DHT22;30487;48.716;9.272;2023-08-07T03:08:28;12.10;99.90
44767;DHT22;30487;48.716;9.272;2023-08-07T03:10:55;12.10;99.90
44767;DHT22;30487;48.716;9.272;2023-08-07T03:13:22;12.10;99.90
44767;DHT22;30487;48.716;9.272;2023-08-07T03:15:48;12.00;99.90
44767;DHT22;30487;48.716;9.272;2023-08-07T03:18:18;12.00;99.90
44767;DHT22;30487;48.716;9.272;2023-08-07T03:20:43;12.00;99.90
44767;DHT22;30487;48.716;9.272;2023-08-07T03:23:10;12.00;99.90
44767;DHT22;30487;48.716;9.272;2023-08-07T03:25:35;12.10;99.90
44767;DHT22;30487;48.716;9.272;2023-08-07T03:28:01;12.00;99.90
44767;DHT22;30487;48.716;9.272;2023-08-07T03:30:26;12.00;99.90
44767;DHT22;30487;48.716;9.272;2023-08-07T03:32:52;11.90;99.90
44767;DHT22;30487;48.716;9.272;2023-08-07T03:35:18;11.90;99.90
44767;DHT22;30487;48.716;9.272;2023-08-07T03:37:43;12.00;99.90
44767;DHT22;30487;48.716;9.272;2023-08-07T03:40:09;12.00;99.90
44767;DHT22;30487;48.716;9.272;2023-08-07T03:42:35;11.90;99.90
44767;DHT22;30487;48.716;9.272;2023-08-07T03:45:00;11.90;99.90
44767;DHT22;30487;48.716;9.272;2023-08-07T03:47:26;11.90;99.90
44767;DHT22;30487;48.716;9.272;2023-08-07T03:49:51;11.90;99.90
44767;DHT22;30487;48.716;9.272;2023-08-07T03:52:17;11.90;99.90
44767;DHT22;30487;48.716;9.272;2023-08-07T03:54:43;11.90;99.90
44767;DHT22;30487;48.716;9.272;2023-08-07T03:57:09;11.90;99.90
44767;DHT22;30487;48.716;9.272;2023-08-07T03:59:36;11.80;99.90
44767;DHT22;30487;48.716;9.272;2023-08-07T04:02:02;11.90;99.90
44767;DHT22;30487;48.716;9.272;2023-08-07T04:04:28;11.80;99.90
44767;DHT22;30487;48.716;9.272;2023-08-07T04:06:53;11.80;99.90
44767;DHT22;30487;48.716;9.272;2023-08-07T04:09:19;11.80;99.90
44767;DHT22;30487;48.716;9.272;2023-08-07T04:11:44;11.80;99.90
44767;DHT22;30487;48.716;9.272;2023-08-07T04:14:10;11.90;99.90
44767;DHT22;30487;48.716;9.272;2023-08-07T04:16:36;11.80;99.90
44767;DHT22;30487;48.716;9.272;2023-08-07T04:19:02;11.80;99.90
44767;DHT22;30487;48.716;9.272;2023-08-07T04:21:29;11.80;99.90
44767;DHT22;30487;48.716;9.272;2023-08-07T04:23:55;11.90;99.90
44767;DHT22;30487;48.716;9.272;2023-08-07T04:26:20;11.90;99.90
44767;DHT22;30487;48.716;9.272;2023-08-07T04:28:46;11.90;99.90
44767;DHT22;30487;48.716;9.272;2023-08-07T04:31:11;11.80;99.90
44767;DHT22;30487;48.716;9.272;2023-08-07T04:33:38;11.80;99.90
44767;DHT22;30487;48.716;9.272;2023-08-07T04:36:04;11.80;99.90
44767;DHT22;30487;48.716;9.272;2023-08-07T04:38:29;11.70;99.90
44767;DHT22;30487;48.716;9.272;2023-08-07T04:40:55;11.80;99.90
44767;DHT22;30487;48.716;9.272;2023-08-07T04:43:20;11.80;99.90
44767;DHT22;30487;48.716;9.272;2023-08-07T04:45:46;11.80;99.90
44767;DHT22;30487;48.716;9.272;2023-08-07T04:48:11;11.80;99.90
44767;DHT22;30487;48.716;9.272;2023-08-07T04:50:37;11.90;99.90
44767;DHT22;30487;48.716;9.272;2023-08-07T04:53:04;11.80;99.90
44767;DHT22;30487;48.716;9.272;2023-08-07T04:55:30;11.80;99.90
44767;DHT22;30487;48.716;9.272;2023-08-07T04:57:56;11.80;99.90
44767;DHT22;30487;48.716;9.272;2023-08-07T05:00:22;11.80;99.90
44767;DHT22;30487;48.716;9.272;2023-08-07T05:02:47;11.80;99.90
44767;DHT22;30487;48.716;9.272;2023-08-07T05:05:14;11.80;99.90
44767;DHT22;30487;48.716;9.272;2023-08-07T05:07:40;11.80;99.90
44767;DHT22;30487;48.716;9.272;2023-08-07T05:10:06;11.80;99.90
44767;DHT22;30487;48.716;9.272;2023-08-07T05:12:32;11.80;99.90
44767;DHT22;30487;48.716;9.272;2023-08-07T05:14:57;11.80;99.90
44767;DHT22;30487;48.716;9.272;2023-08-07T05:17:23;11.90;99.90
44767;DHT22;30487;48.716;9.272;2023-08-07T05:19:49;11.90;99.90
44767;DHT22;30487;48.716;9.272;2023-08-07T05:22:16;11.90;99.90
44767;DHT22;30487;48.716;9.272;2023-08-07T05:24:41;11.90;99.90
44767;DHT22;30487;48.716;9.272;2023-08-07T05:27:10;11.90;99.90
44767;DHT22;30487;48.716;9.272;2023-08-07T05:29:36;12.00;99.90
44767;DHT22;30487;48.716;9.272;2023-08-07T05:32:11;12.00;99.90
44767;DHT22;30487;48.716;9.272;2023-08-07T05:34:37;12.00;99.90
44767;DHT22;30487;48.716;9.272;2023-08-07T05:37:03;12.10;99.90
44767;DHT22;30487;48.716;9.272;2023-08-07T05:39:29;12.10;99.90
44767;DHT22;30487;48.716;9.272;2023-08-07T05:41:54;12.10;99.90
44767;DHT22;30487;48.716;9.272;2023-08-07T05:44:23;12.20;99.90
44767;DHT22;30487;48.716;9.272;2023-08-07T05:46:48;12.20;99.90
44767;DHT22;30487;48.716;9.272;2023-08-07T05:49:14;12.20;99.90
44767;DHT22;30487;48.716;9.272;2023-08-07T05:51:39;12.20;99.90
44767;DHT22;30487;48.716;9.272;2023-08-07T05:54:05;12.30;99.90
44767;DHT22;30487;48.716;9.272;2023-08-07T05:56:30;12.40;99.90
44767;DHT22;30487;48.716;9.272;2023-08-07T05:58:56;12.50;99.90
44767;DHT22;30487;48.716;9.272;2023-08-07T06:01:22;12.50;99.90
44767;DHT22;30487;48.716;9.272;2023-08-07T06:03:47;12.60;99.90
44767;DHT22;30487;48.716;9.272;2023-08-07T06:06:13;12.60;99.90
44767;DHT22;30487;48.716;9.272;2023-08-07T06:08:38;12.60;99.90
44767;DHT22;30487;48.716;9.272;2023-08-07T06:11:05;12.70;99.90
44767;DHT22;30487;48.716;9.272;2023-08-07T06:13:33;12.70;99.90
44767;DHT22;30487;48.716;9.272;2023-08-07T06:15:59;12.80;99.90
44767;DHT22;30487;48.716;9.272;2023-08-07T06:18:25;12.80;99.90
44767;DHT22;30487;48.716;9.272;2023-08-07T06:20:50;12.90;99.90
44767;DHT22;30487;48.716;9.272;2023-08-07T06:23:16;12.90;99.90
44767;DHT22;30487;48.716;9.272;2023-08-07T06:25:41;12.90;99.90
44767;DHT22;30487;48.716;9.272;2023-08-07T06:28:08;12.90;99.90
44767;DHT22;30487;48.716;9.272;2023-08-07T06:30:33;13.00;99.90
44767;DHT22;30487;48.716;9.272;2023-08-07T06:32:59;13.00;99.90
44767;DHT22;30487;48.716;9.272;2023-08-07T06:35:25;13.10;99.90
44767;DHT22;30487;48.716;9.272;2023-08-07T06:37:50;13.10;99.90
44767;DHT22;30487;48.716;9.272;2023-08-07T06:40:16;13.20;99.90
44767;DHT22;30487;48.716;9.272;2023-08-07T06:42:41;13.20;99.90
44767;DHT22;30487;48.716;9.272;2023-08-07T06:45:07;13.30;99.90
44767;DHT22;30487;48.716;9.272;2023-08-07T06:47:33;13.30;99.90
44767;DHT22;30487;48.716;9.272;2023-08-07T06:49:58;13.30;99.90
44767;DHT22;30487;48.716;9.272;2023-08-07T06:52:24;13.30;99.90
44767;DHT22;30487;48.716;9.272;2023-08-07T06:54:50;13.40;99.90
44767;DHT22;30487;48.716;9.272;2023-08-07T06:57:15;13.50;99.90
44767;DHT22;30487;48.716;9.272;2023-08-07T06:59:41;13.50;99.90
44767;DHT22;30487;48.716;9.272;2023-08-07T07:02:06;13.50;99.90
44767;DHT22;30487;48.716;9.272;2023-08-07T07:04:32;13.60;99.90
44767;DHT22;30487;48.716;9.272;2023-08-07T07:06:58;13.70;99.90
44767;DHT22;30487;48.716;9.272;2023-08-07T07:09:24;13.70;99.90
44767;DHT22;30487;48.716;9.272;2023-08-07T07:11:49;13.90;99.90
44767;DHT22;30487;48.716;9.272;2023-08-07T07:14:15;14.00;99.90
44767;DHT22;30487;48.716;9.272;2023-08-07T07:16:41;14.00;99.90
44767;DHT22;30487;48.716;9.272;2023-08-07T07:19:07;14.20;99.90
44767;DHT22;30487;48.716;9.272;2023-08-07T07:21:34;14.20;99.90
44767;DHT22;30487;48.716;9.272;2023-08-07T07:24:01;14.20;99.90
44767;DHT22;30487;48.716;9.272;2023-08-07T07:26:27;14.20;99.90
44767;DHT22;30487;48.716;9.272;2023-08-07T07:28:52;14.30;99.90
44767;DHT22;30487;48.716;9.272;2023-08-07T07:31:18;14.30;99.90
44767;DHT22;30487;48.716;9.272;2023-08-07T07:33:44;14.40;99.90
44767;DHT22;30487;48.716;9.272;2023-08-07T07:36:17;14.50;99.90
44767;DHT22;30487;48.716;9.272;2023-08-07T07:38:43;14.60;99.90
44767;DHT22;30487;48.716;9.272;2023-08-07T07:41:10;14.50;99.90
44767;DHT22;30487;48.716;9.272;2023-08-07T07:43:37;14.40;99.90
44767;DHT22;30487;48.716;9.272;2023-08-07T07:46:03;14.40;99.90
44767;DHT22;30487;48.716;9.272;2023-08-07T07:48:28;14.40;99.90
44767;DHT22;30487;48.716;9.272;2023-08-07T07:51:01;14.50;99.90
44767;DHT22;30487;48.716;9.272;2023-08-07T07:53:27;14.60;99.90
44767;DHT22;30487;48.716;9.272;2023-08-07T07:55:53;14.60;99.90
44767;DHT22;30487;48.716;9.272;2023-08-07T07:58:19;14.80;99.90
44767;DHT22;30487;48.716;9.272;2023-08-07T08:00:44;14.90;99.90
44767;DHT22;30487;48.716;9.272;2023-08-07T08:03:10;15.10;99.90
44767;DHT22;30487;48.716;9.272;2023-08-07T08:05:35;15.20;99.90
44767;DHT22;30487;48.716;9.272;2023-08-07T08:08:01;15.20;99.90
44767;DHT22;30487;48.716;9.272;2023-08-07T08:10:27;15.20;99.90
44767;DHT22;30487;48.716;9.272;2023-08-07T08:12:55;15.30;99.90
44767;DHT22;30487;48.716;9.272;2023-08-07T08:15:21;15.30;99.90
44767;DHT22;30487;48.716;9.272;2023-08-07T08:17:47;15.30;99.90
44767;DHT22;30487;48.716;9.272;2023-08-07T08:20:13;15.30;99.90
44767;DHT22;30487;48.716;9.272;2023-08-07T08:22:44;15.20;99.90
44767;DHT22;30487;48.716;9.272;2023-08-07T08:25:10;15.10;99.90
44767;DHT22;30487;48.716;9.272;2023-08-07T08:27:37;15.10;99.90
44767;DHT22;30487;48.716;9.272;2023-08-07T08:30:03;15.00;99.90
44767;DHT22;30487;48.716;9.272;2023-08-07T08:32:28;15.00;99.90
44767;DHT22;30487;48.716;9.272;2023-08-07T08:34:54;15.00;99.90
44767;DHT22;30487;48.716;9.272;2023-08-07T08:37:19;15.00;99.90
44767;DHT22;30487;48.716;9.272;2023-08-07T08:39:45;15.30;99.90
44767;DHT22;30487;48.716;9.272;2023-08-07T08:42:11;15.40;99.90
44767;DHT22;30487;48.716;9.272;2023-08-07T08:44:39;15.60;99.90
44767;DHT22;30487;48.716;9.272;2023-08-07T08:47:06;15.70;99.90
44767;DHT22;30487;48.716;9.272;2023-08-07T08:49:45;15.70;99.90
44767;DHT22;30487;48.716;9.272;2023-08-07T08:52:11;15.70;99.90
44767;DHT22;30487;48.716;9.272;2023-08-07T08:54:38;15.60;99.90
44767;DHT22;30487;48.716;9.272;2023-08-07T08:57:04;15.60;99.90
44767;DHT22;30487;48.716;9.272;2023-08-07T08:59:31;15.60;99.90
44767;DHT22;30487;48.716;9.272;2023-08-07T09:01:57;15.60;99.90
44767;DHT22;30487;48.716;9.272;2023-08-07T09:04:22;15.80;99.90
44767;DHT22;30487;48.716;9.272;2023-08-07T09:06:48;16.10;99.90
44767;DHT22;30487;48.716;9.272;2023-08-07T09:09:14;16.40;99.90
44767;DHT22;30487;48.716;9.272;2023-08-07T09:11:43;16.60;99.90
44767;DHT22;30487;48.716;9.272;2023-08-07T09:14:12;16.70;99.80
44767;DHT22;30487;48.716;9.272;2023-08-07T09:16:39;17.00;99.90
44767;DHT22;30487;48.716;9.272;2023-08-07T09:19:05;17.00;99.10
44767;DHT22;30487;48.716;9.272;2023-08-07T09:21:31;17.10;99.40
44767;DHT22;30487;48.716;9.272;2023-08-07T09:23:57;16.90;99.20
44767;DHT22;30487;48.716;9.272;2023-08-07T09:26:23;17.00;99.20
44767;DHT22;30487;48.716;9.272;2023-08-07T09:28:51;16.80;99.20
44767;DHT22;30487;48.716;9.272;2023-08-07T09:31:17;16.80;99.00
44767;DHT22;30487;48.716;9.272;2023-08-07T09:33:46;16.70;98.90
44767;DHT22;30487;48.716;9.272;2023-08-07T09:36:12;16.70;98.30
44767;DHT22;30487;48.716;9.272;2023-08-07T09:38:38;16.70;99.40
44767;DHT22;30487;48.716;9.272;2023-08-07T09:41:03;16.70;98.50
44767;DHT22;30487;48.716;9.272;2023-08-07T09:43:33;16.80;98.40
44767;DHT22;30487;48.716;9.272;2023-08-07T09:46:03;16.80;98.10
44767;DHT22;30487;48.716;9.272;2023-08-07T09:48:29;16.70;98.20
44767;DHT22;30487;48.716;9.272;2023-08-07T09:50:58;16.60;98.40
44767;DHT22;30487;48.716;9.272;2023-08-07T09:53:30;16.70;99.30
44767;DHT22;30487;48.716;9.272;2023-08-07T09:55:56;16.80;99.60
44767;DHT22;30487;48.716;9.272;2023-08-07T09:58:22;16.80;98.80
44767;DHT22;30487;48.716;9.272;2023-08-07T10:00:48;16.80;99.00
44767;DHT22;30487;48.716;9.272;2023-08-07T10:03:14;16.60;98.40
44767;DHT22;30487;48.716;9.272;2023-08-07T10:05:41;16.50;98.40
44767;DHT22;30487;48.716;9.272;2023-08-07T10:08:07;16.60;98.50
44767;DHT22;30487;48.716;9.272;2023-08-07T10:10:33;16.90;98.30
44767;DHT22;30487;48.716;9.272;2023-08-07T10:13:02;17.30;98.30
44767;DHT22;30487;48.716;9.272;2023-08-07T10:15:29;17.80;97.80
44767;DHT22;30487;48.716;9.272;2023-08-07T10:17:55;18.10;96.70
44767;DHT22;30487;48.716;9.272;2023-08-07T10:20:21;18.20;97.10
44767;DHT22;30487;48.716;9.272;2023-08-07T10:22:48;18.10;97.30
44767;DHT22;30487;48.716;9.272;2023-08-07T10:25:15;18.10;97.40
44767;DHT22;30487;48.716;9.272;2023-08-07T10:27:43;18.20;96.90
44767;DHT22;30487;48.716;9.272;2023-08-07T10:30:11;18.60;97.00
44767;DHT22;30487;48.716;9.272;2023-08-07T10:32:39;18.80;96.60
44767;DHT22;30487;48.716;9.272;2023-08-07T10:35:06;18.60;95.70
44767;DHT22;30487;48.716;9.272;2023-08-07T10:40:04;18.20;95.10
44767;DHT22;30487;48.716;9.272;2023-08-07T10:42:55;18.00;95.70
44767;DHT22;30487;48.716;9.272;2023-08-07T10:45:22;17.90;95.70
44767;DHT22;30487;48.716;9.272;2023-08-07T10:50:34;17.90;95.10
44767;DHT22;30487;48.716;9.272;2023-08-07T10:53:04;17.60;93.40
44767;DHT22;30487;48.716;9.272;2023-08-07T10:55:48;17.30;94.20
44767;DHT22;30487;48.716;9.272;2023-08-07T10:58:32;17.30;94.50
44767;DHT22;30487;48.716;9.272;2023-08-07T11:04:05;17.30;95.40
44767;DHT22;30487;48.716;9.272;2023-08-07T11:06:32;17.40;94.80
44767;DHT22;30487;48.716;9.272;2023-08-07T11:09:03;17.30;94.80
44767;DHT22;30487;48.716;9.272;2023-08-07T11:11:29;17.20;94.80
44767;DHT22;30487;48.716;9.272;2023-08-07T11:13:55;17.30;95.20
44767;DHT22;30487;48.716;9.272;2023-08-07T11:16:21;17.40;95.00
44767;DHT22;30487;48.716;9.272;2023-08-07T11:18:47;17.40;95.50
44767;DHT22;30487;48.716;9.272;2023-08-07T11:21:14;17.50;95.60
44767;DHT22;30487;48.716;9.272;2023-08-07T11:23:40;17.60;95.00
44767;DHT22;30487;48.716;9.272;2023-08-07T11:26:06;17.70;94.50
44767;DHT22;30487;48.716;9.272;2023-08-07T11:28:32;17.80;95.20
44767;DHT22;30487;48.716;9.272;2023-08-07T11:30:58;17.90;95.80
44767;DHT22;30487;48.716;9.272;2023-08-07T11:33:24;17.90;95.70
44767;DHT22;30487;48.716;9.272;2023-08-07T11:35:51;17.60;94.70
44767;DHT22;30487;48.716;9.272;2023-08-07T11:38:34;17.40;95.30
44767;DHT22;30487;48.716;9.272;2023-08-07T11:41:01;17.10;95.70
44767;DHT22;30487;48.716;9.272;2023-08-07T11:43:28;17.00;96.10
44767;DHT22;30487;48.716;9.272;2023-08-07T11:45:55;16.90;96.90
44767;DHT22;30487;48.716;9.272;2023-08-07T11:48:24;16.80;97.10
44767;DHT22;30487;48.716;9.272;2023-08-07T11:50:51;16.70;97.50
44767;DHT22;30487;48.716;9.272;2023-08-07T11:53:16;16.60;97.60
44767;DHT22;30487;48.716;9.272;2023-08-07T11:55:55;16.50;97.90
44767;DHT22;30487;48.716;9.272;2023-08-07T11:58:22;16.30;98.30
44767;DHT22;30487;48.716;9.272;2023-08-07T12:00:47;16.20;98.40
44767;DHT22;30487;48.716;9.272;2023-08-07T12:03:32;16.20;98.50
44767;DHT22;30487;48.716;9.272;2023-08-07T12:06:02;16.10;98.70
44767;DHT22;30487;48.716;9.272;2023-08-07T12:08:32;16.00;98.70
44767;DHT22;30487;48.716;9.272;2023-08-07T12:11:01;16.00;98.60
44767;DHT22;30487;48.716;9.272;2023-08-07T12:13:27;16.00;99.20
44767;DHT22;30487;48.716;9.272;2023-08-07T12:15:56;16.00;99.20
44767;DHT22;30487;48.716;9.272;2023-08-07T12:18:23;15.90;99.20
44767;DHT22;30487;48.716;9.272;2023-08-07T12:20:50;15.90;99.60
44767;DHT22;30487;48.716;9.272;2023-08-07T12:23:16;15.90;99.90
44767;DHT22;30487;48.716;9.272;2023-08-07T12:25:43;15.90;99.90
44767;DHT22;30487;48.716;9.272;2023-08-07T12:28:08;15.80;99.90
44767;DHT22;30487;48.716;9.272;2023-08-07T12:30:35;15.80;99.90
44767;DHT22;30487;48.716;9.272;2023-08-07T12:33:00;15.80;99.90
44767;DHT22;30487;48.716;9.272;2023-08-07T12:35:28;15.80;99.90
44767;DHT22;30487;48.716;9.272;2023-08-07T12:37:53;15.80;99.90
44767;DHT22;30487;48.716;9.272;2023-08-07T12:40:19;15.80;99.90
44767;DHT22;30487;48.716;9.272;2023-08-07T12:42:46;15.80;99.90
44767;DHT22;30487;48.716;9.272;2023-08-07T12:45:11;15.80;99.90
44767;DHT22;30487;48.716;9.272;2023-08-07T12:47:37;15.80;99.90
44767;DHT22;30487;48.716;9.272;2023-08-07T12:50:03;15.90;99.90
44767;DHT22;30487;48.716;9.272;2023-08-07T12:52:29;16.00;99.90
44767;DHT22;30487;48.716;9.272;2023-08-07T12:54:55;16.10;99.90
44767;DHT22;30487;48.716;9.272;2023-08-07T12:57:20;16.30;99.90
44767;DHT22;30487;48.716;9.272;2023-08-07T12:59:46;16.40;99.90
44767;DHT22;30487;48.716;9.272;2023-08-07T13:02:11;16.50;99.90
44767;DHT22;30487;48.716;9.272;2023-08-07T13:04:37;16.50;99.90
44767;DHT22;30487;48.716;9.272;2023-08-07T13:07:03;16.60;99.90
44767;DHT22;30487;48.716;9.272;2023-08-07T13:09:28;16.60;99.90
44767;DHT22;30487;48.716;9.272;2023-08-07T13:11:56;16.70;99.90
44767;DHT22;30487;48.716;9.272;2023-08-07T13:14:21;16.60;99.90
44767;DHT22;30487;48.716;9.272;2023-08-07T13:16:47;16.70;99.90
44767;DHT22;30487;48.716;9.272;2023-08-07T13:19:14;16.80;99.90
44767;DHT22;30487;48.716;9.272;2023-08-07T13:21:40;16.80;99.90
44767;DHT22;30487;48.716;9.272;2023-08-07T13:24:06;16.80;99.90
44767;DHT22;30487;48.716;9.272;2023-08-07T13:26:31;17.00;99.90
44767;DHT22;30487;48.716;9.272;2023-08-07T13:28:57;16.90;99.90
44767;DHT22;30487;48.716;9.272;2023-08-07T13:31:22;17.00;99.90
44767;DHT22;30487;48.716;9.272;2023-08-07T13:33:48;17.00;99.90
44767;DHT22;30487;48.716;9.272;2023-08-07T13:36:13;16.90;99.90
44767;DHT22;30487;48.716;9.272;2023-08-07T13:38:39;16.80;99.90
44767;DHT22;30487;48.716;9.272;2023-08-07T13:41:04;16.70;99.90
44767;DHT22;30487;48.716;9.272;2023-08-07T13:43:30;16.60;99.90
44767;DHT22;30487;48.716;9.272;2023-08-07T13:45:55;16.60;99.90
44767;DHT22;30487;48.716;9.272;2023-08-07T13:48:21;16.60;99.90
44767;DHT22;30487;48.716;9.272;2023-08-07T13:50:47;16.60;99.90
44767;DHT22;30487;48.716;9.272;2023-08-07T13:53:13;16.60;99.90
44767;DHT22;30487;48.716;9.272;2023-08-07T13:55:38;16.60;99.90
44767;DHT22;30487;48.716;9.272;2023-08-07T13:58:04;16.70;99.90
44767;DHT22;30487;48.716;9.272;2023-08-07T14:00:30;16.80;99.90
44767;DHT22;30487;48.716;9.272;2023-08-07T14:02:55;17.00;99.90
44767;DHT22;30487;48.716;9.272;2023-08-07T14:05:21;17.40;99.90
44767;DHT22;30487;48.716;9.272;2023-08-07T14:07:46;17.80;99.90
44767;DHT22;30487;48.716;9.272;2023-08-07T14:10:12;18.10;99.90
44767;DHT22;30487;48.716;9.272;2023-08-07T14:12:37;18.50;99.20
44767;DHT22;30487;48.716;9.272;2023-08-07T14:15:04;18.80;98.80
44767;DHT22;30487;48.716;9.272;2023-08-07T14:17:30;18.90;98.60
44767;DHT22;30487;48.716;9.272;2023-08-07T14:19:55;18.70;98.40
44767;DHT22;30487;48.716;9.272;2023-08-07T14:22:21;18.70;98.10
44767;DHT22;30487;48.716;9.272;2023-08-07T14:24:46;18.60;98.00
44767;DHT22;30487;48.716;9.272;2023-08-07T14:27:12;18.60;97.30
44767;DHT22;30487;48.716;9.272;2023-08-07T14:29:37;18.60;97.70
44767;DHT22;30487;48.716;9.272;2023-08-07T14:32:03;18.80;97.30
44767;DHT22;30487;48.716;9.272;2023-08-07T14:34:29;18.90;96.30
44767;DHT22;30487;48.716;9.272;2023-08-07T14:36:54;18.90;96.40
44767;DHT22;30487;48.716;9.272;2023-08-07T14:39:20;18.80;96.10
44767;DHT22;30487;48.716;9.272;2023-08-07T14:41:46;18.80;96.40
44767;DHT22;30487;48.716;9.272;2023-08-07T14:44:13;18.60;96.30
44767;DHT22;30487;48.716;9.272;2023-08-07T14:46:39;18.40;95.20
44767;DHT22;30487;48.716;9.272;2023-08-07T14:49:04;18.20;95.40
44767;DHT22;30487;48.716;9.272;2023-08-07T14:51:30;18.20;95.80
44767;DHT22;30487;48.716;9.272;2023-08-07T14:53:55;18.10;95.80
44767;DHT22;30487;48.716;9.272;2023-08-07T14:56:21;18.00;95.30
44767;DHT22;30487;48.716;9.272;2023-08-07T14:58:46;17.80;96.10
44767;DHT22;30487;48.716;9.272;2023-08-07T15:01:12;17.80;96.10
44767;DHT22;30487;48.716;9.272;2023-08-07T15:03:37;17.80;96.50
44767;DHT22;30487;48.716;9.272;2023-08-07T15:06:03;17.80;96.50
44767;DHT22;30487;48.716;9.272;2023-08-07T15:08:30;17.80;96.80
44767;DHT22;30487;48.716;9.272;2023-08-07T15:10:55;17.70;96.80
44767;DHT22;30487;48.716;9.272;2023-08-07T15:13:21;17.60;97.30
44767;DHT22;30487;48.716;9.272;2023-08-07T15:15:46;17.60;97.40
44767;DHT22;30487;48.716;9.272;2023-08-07T15:18:12;17.70;97.40
44767;DHT22;30487;48.716;9.272;2023-08-07T15:20:38;18.00;98.20
44767;DHT22;30487;48.716;9.272;2023-08-07T15:23:03;18.40;97.50
44767;DHT22;30487;48.716;9.272;2023-08-07T15:25:29;19.70;96.50
44767;DHT22;30487;48.716;9.272;2023-08-07T15:27:54;20.60;94.30
44767;DHT22;30487;48.716;9.272;2023-08-07T15:30:28;21.70;92.70
44767;DHT22;30487;48.716;9.272;2023-08-07T15:32:54;21.80;91.80
44767;DHT22;30487;48.716;9.272;2023-08-07T15:35:20;21.10;92.50
44767;DHT22;30487;48.716;9.272;2023-08-07T15:37:45;20.40;92.70